Time;durP1;ratioP1;P1;durP2;ratioP2;P2;SDS_P1;SDS_P2;PMS_P1;PMS_P2;Temp;Humidity;BMP_temperature;BMP_pressure;BME280_temperature;BME280_humidity;BME280_pressure;Samples;Min_cycle;Max_cycle;Signal;HPM_P1;HPM_P2
2021/04/20 00:02:15;;;;;;;18.67;12.67;;;7.30;99.90;;;;;;5044862;28;20197;-92
2021/04/20 00:04:58;;;;;;;19.33;14.23;;;7.30;99.90;;;;;;5055354;28;20205;-92
2021/04/20 00:07:29;;;;;;;17.53;13.33;;;7.30;99.90;;;;;;5061369;28;20182;-93
2021/04/20 00:10:14;;;;;;;17.83;13.27;;;7.30;99.90;;;;;;5061681;28;20264;-95
2021/04/20 00:12:43;;;;;;;20.80;14.83;;;7.30;99.90;;;;;;5063617;28;20202;-90
2021/04/20 00:18:13;;;;;;;21.97;15.60;;;7.30;99.90;;;;;;5047535;28;20259;-93
2021/04/20 00:20:39;;;;;;;22.93;15.43;;;7.30;99.90;;;;;;5433242;22;20238;-94
2021/04/20 00:23:06;;;;;;;21.97;14.77;;;7.20;99.90;;;;;;5016809;28;20252;-93
2021/04/20 00:25:32;;;;;;;19.27;14.20;;;7.30;99.90;;;;;;5017409;28;20214;-92
2021/04/20 00:27:58;;;;;;;23.03;14.30;;;7.20;99.90;;;;;;5017718;28;20182;-94
2021/04/20 00:30:24;;;;;;;18.93;13.60;;;7.30;99.90;;;;;;5017580;28;20273;-94
2021/04/20 00:32:56;;;;;;;18.40;14.30;;;7.30;99.90;;;;;;5017522;28;20182;-94
2021/04/20 00:35:22;;;;;;;21.33;15.47;;;7.30;99.90;;;;;;5017480;28;20620;-94
2021/04/20 00:37:47;;;;;;;21.17;14.93;;;7.20;99.90;;;;;;5017378;28;20185;-94
2021/04/20 00:40:16;;;;;;;22.03;14.53;;;7.20;99.90;;;;;;5017433;28;20186;-94
2021/04/20 00:42:56;;;;;;;19.23;13.20;;;7.20;99.90;;;;;;5017450;28;20183;-93
2021/04/20 00:45:26;;;;;;;14.90;11.20;;;7.30;99.90;;;;;;5017245;28;20210;-94
2021/04/20 00:47:52;;;;;;;17.30;12.43;;;7.20;99.90;;;;;;5020653;28;20197;-94
2021/04/20 00:50:23;;;;;;;17.17;12.37;;;7.10;99.90;;;;;;5021397;28;20183;-94
2021/04/20 00:52:50;;;;;;;15.77;11.47;;;7.20;99.90;;;;;;5003160;28;20206;-94
2021/04/20 00:55:15;;;;;;;16.43;11.50;;;7.10;99.90;;;;;;5018295;28;20183;-93
2021/04/20 00:57:41;;;;;;;14.97;11.13;;;7.10;99.90;;;;;;5018211;28;20179;-94
2021/04/20 01:00:15;;;;;;;17.33;12.20;;;7.00;99.90;;;;;;5018207;28;20575;-93
2021/04/20 01:02:43;;;;;;;19.97;11.97;;;7.00;99.90;;;;;;5018301;28;20175;-93
2021/04/20 01:05:12;;;;;;;17.63;12.40;;;6.90;99.90;;;;;;5001332;28;20207;-93
2021/04/20 01:07:39;;;;;;;16.77;12.67;;;7.00;99.90;;;;;;5017593;28;20585;-93
2021/04/20 01:10:06;;;;;;;18.03;12.70;;;6.90;99.90;;;;;;5018207;28;20541;-93
2021/04/20 01:12:45;;;;;;;23.73;12.73;;;6.80;99.90;;;;;;5017638;28;20183;-94
2021/04/20 01:15:13;;;;;;;18.67;12.77;;;6.70;99.90;;;;;;5017612;28;20558;-93
2021/04/20 01:17:39;;;;;;;16.20;11.83;;;6.70;99.90;;;;;;5017691;28;20182;-94
2021/04/20 01:20:08;;;;;;;16.87;11.90;;;6.70;99.90;;;;;;5020907;28;20233;-95
2021/04/20 01:22:42;;;;;;;17.10;12.90;;;6.70;99.90;;;;;;5040352;28;20177;-94
2021/04/20 01:25:10;;;;;;;17.47;12.53;;;6.60;99.90;;;;;;5040340;28;20266;-94
2021/04/20 01:27:37;;;;;;;22.20;12.40;;;6.50;99.90;;;;;;5040595;28;20582;-94
2021/04/20 01:30:08;;;;;;;15.87;13.17;;;6.50;99.90;;;;;;5040646;28;20174;-94
2021/04/20 01:32:43;;;;;;;17.57;12.60;;;6.50;99.90;;;;;;5040461;28;20518;-94
2021/04/20 01:35:10;;;;;;;18.33;12.47;;;6.40;99.90;;;;;;5040380;28;20165;-94
2021/04/20 01:37:36;;;;;;;17.30;12.90;;;6.40;99.90;;;;;;5040158;28;20539;-94
2021/04/20 01:40:04;;;;;;;19.67;12.40;;;6.30;99.90;;;;;;5040425;28;20196;-94
2021/04/20 01:45:43;;;;;;;15.57;12.43;;;6.20;99.90;;;;;;5058157;28;20209;-94
2021/04/20 01:48:12;;;;;;;15.93;11.60;;;6.30;99.90;;;;;;5039982;28;20225;-94
2021/04/20 01:50:42;;;;;;;14.67;11.20;;;6.30;99.90;;;;;;5040186;28;20612;-94
2021/04/20 01:53:10;;;;;;;17.50;11.20;;;6.50;99.90;;;;;;5040308;28;20177;-94
2021/04/20 01:55:38;;;;;;;14.87;11.03;;;6.50;99.90;;;;;;5057743;28;20166;-94
2021/04/20 01:58:05;;;;;;;16.87;11.33;;;6.50;99.90;;;;;;5039095;28;20306;-94
2021/04/20 02:00:32;;;;;;;17.13;12.40;;;6.50;99.90;;;;;;5039870;28;20185;-93
2021/04/20 02:03:00;;;;;;;18.00;11.67;;;6.50;99.90;;;;;;5040056;28;20219;-94
2021/04/20 02:05:26;;;;;;;16.23;11.90;;;6.40;99.90;;;;;;5039748;28;20237;-95
2021/04/20 02:07:53;;;;;;;14.87;11.07;;;6.40;99.90;;;;;;5039614;28;20189;-94
2021/04/20 02:10:19;;;;;;;16.47;11.27;;;6.50;99.90;;;;;;5040102;28;20235;-93
2021/04/20 02:12:59;;;;;;;13.83;10.50;;;6.40;99.90;;;;;;5039670;28;20192;-94
2021/04/20 02:15:25;;;;;;;12.20;9.43;;;6.30;99.90;;;;;;5040091;28;20204;-94
2021/04/20 02:17:52;;;;;;;11.77;9.27;;;6.20;99.90;;;;;;5039803;28;20206;-93
2021/04/20 02:20:19;;;;;;;14.90;10.33;;;6.20;99.90;;;;;;5039532;28;20229;-95
2021/04/20 02:22:49;;;;;;;19.37;11.10;;;6.20;99.90;;;;;;5039340;28;20632;-94
2021/04/20 02:25:17;;;;;;;14.53;10.33;;;6.10;99.90;;;;;;5039286;28;20205;-94
2021/04/20 02:27:44;;;;;;;14.53;10.60;;;6.10;99.90;;;;;;5039689;28;20525;-94
2021/04/20 02:30:12;;;;;;;15.10;10.77;;;6.00;99.90;;;;;;5039625;28;20184;-94
2021/04/20 02:32:41;;;;;;;15.17;10.43;;;6.00;99.90;;;;;;5039627;28;20182;-93
2021/04/20 02:35:09;;;;;;;12.70;9.33;;;6.10;99.90;;;;;;5039404;28;20227;-94
2021/04/20 02:37:37;;;;;;;17.07;9.83;;;6.10;99.90;;;;;;5039512;28;20224;-94
2021/04/20 02:40:07;;;;;;;16.07;9.63;;;6.10;99.90;;;;;;5039184;28;20178;-93
2021/04/20 02:42:34;;;;;;;16.43;9.87;;;6.00;99.90;;;;;;5039301;28;20257;-94
2021/04/20 02:45:00;;;;;;;13.63;10.03;;;5.90;99.90;;;;;;5039129;28;20228;-94
2021/04/20 02:47:28;;;;;;;15.07;10.80;;;5.90;99.90;;;;;;5039279;28;20174;-95
2021/04/20 02:49:55;;;;;;;19.50;10.50;;;5.90;99.90;;;;;;5039088;28;20187;-94
2021/04/20 02:52:26;;;;;;;16.83;10.47;;;5.80;99.90;;;;;;5038723;28;20193;-94
2021/04/20 02:54:52;;;;;;;14.37;10.17;;;5.80;99.90;;;;;;5038903;28;20518;-94
2021/04/20 02:57:19;;;;;;;14.93;10.37;;;5.90;99.90;;;;;;5038866;28;20185;-93
2021/04/20 02:59:45;;;;;;;14.13;10.03;;;5.80;99.90;;;;;;5039484;28;20197;-93
2021/04/20 03:02:24;;;;;;;16.47;9.90;;;5.80;99.90;;;;;;5038940;28;20174;-94
2021/04/20 03:04:51;;;;;;;13.90;10.23;;;5.70;99.90;;;;;;5039045;28;20304;-94
2021/04/20 03:07:17;;;;;;;13.10;9.40;;;5.70;99.90;;;;;;5038703;28;20190;-93
2021/04/20 03:09:43;;;;;;;15.57;11.03;;;5.60;99.90;;;;;;5038392;28;20628;-93
2021/04/20 03:12:10;;;;;;;14.87;9.57;;;5.60;99.90;;;;;;5038653;28;20272;-94
2021/04/20 03:14:36;;;;;;;17.07;10.27;;;5.60;99.90;;;;;;5056462;28;20174;-93
2021/04/20 03:17:02;;;;;;;14.00;9.87;;;5.60;99.90;;;;;;5038538;28;20184;-94
2021/04/20 03:19:27;;;;;;;16.03;9.33;;;5.60;99.90;;;;;;5038433;28;20613;-94
2021/04/20 03:21:54;;;;;;;13.63;7.40;;;5.60;99.90;;;;;;5038286;28;20261;-95
2021/04/20 03:24:32;;;;;;;12.93;8.17;;;5.60;99.90;;;;;;5038202;28;20178;-93
2021/04/20 03:26:58;;;;;;;12.77;8.57;;;5.70;99.90;;;;;;5038277;28;20743;-94
2021/04/20 03:29:24;;;;;;;13.87;9.40;;;5.60;99.90;;;;;;5038308;28;20574;-94
2021/04/20 03:31:50;;;;;;;13.50;9.63;;;5.60;99.90;;;;;;5038069;28;20210;-94
2021/04/20 03:34:34;;;;;;;16.00;9.93;;;5.50;99.90;;;;;;5038182;28;20174;-94
2021/04/20 03:37:08;;;;;;;15.40;10.27;;;5.50;99.90;;;;;;5038201;28;20170;-94
2021/04/20 03:39:46;;;;;;;13.03;9.90;;;5.50;99.90;;;;;;5037999;28;20166;-94
2021/04/20 03:42:19;;;;;;;15.90;10.67;;;5.50;99.90;;;;;;5038211;28;20173;-94
2021/04/20 03:44:50;;;;;;;12.40;9.37;;;5.40;99.90;;;;;;5038341;28;20196;-94
2021/04/20 03:47:21;;;;;;;15.33;9.57;;;5.30;99.90;;;;;;5038253;28;20201;-95
2021/04/20 03:49:49;;;;;;;9.83;7.07;;;5.30;99.90;;;;;;5038043;28;20269;-94
2021/04/20 03:52:23;;;;;;;11.87;8.57;;;5.30;99.90;;;;;;5024149;28;20194;-94
2021/04/20 03:54:50;;;;;;;13.83;9.87;;;5.30;99.90;;;;;;5017938;28;20182;-93
2021/04/20 03:57:19;;;;;;;13.47;9.03;;;5.40;99.90;;;;;;5017994;28;20202;-94
2021/04/20 03:59:46;;;;;;;10.87;8.30;;;5.40;99.90;;;;;;5018108;28;20183;-92
2021/04/20 04:02:12;;;;;;;13.63;9.77;;;5.40;99.90;;;;;;5017807;28;20179;-94
2021/04/20 04:04:43;;;;;;;15.97;9.13;;;5.40;99.90;;;;;;5017630;28;20190;-94
2021/04/20 04:07:11;;;;;;;13.10;8.50;;;5.40;99.90;;;;;;5017863;28;20609;-93
2021/04/20 04:09:39;;;;;;;12.33;9.37;;;5.20;99.90;;;;;;5017894;28;20174;-94
2021/04/20 04:12:07;;;;;;;13.60;9.80;;;5.00;99.90;;;;;;5017808;28;20186;-95
2021/04/20 04:14:36;;;;;;;13.33;9.33;;;4.80;99.90;;;;;;5018217;28;20256;-94
2021/04/20 04:17:07;;;;;;;13.60;9.37;;;4.80;99.90;;;;;;5017893;28;20179;-94
2021/04/20 04:19:41;;;;;;;12.03;9.43;;;4.80;99.90;;;;;;5017822;28;20529;-94
2021/04/20 04:22:18;;;;;;;15.23;9.57;;;4.80;99.90;;;;;;5029666;28;20246;-94
2021/04/20 04:24:59;;;;;;;12.83;9.50;;;4.80;99.90;;;;;;5037275;28;20247;-93
2021/04/20 04:27:28;;;;;;;19.87;10.23;;;4.90;99.90;;;;;;5037346;28;20189;-94
2021/04/20 04:30:00;;;;;;;14.87;10.00;;;5.00;99.90;;;;;;5037097;28;20177;-95
2021/04/20 04:32:29;;;;;;;13.33;9.03;;;5.00;99.90;;;;;;5037274;28;20178;-94
2021/04/20 04:35:04;;;;;;;12.13;8.53;;;5.10;99.90;;;;;;5037313;28;20174;-94
2021/04/20 04:37:32;;;;;;;11.30;8.70;;;5.10;99.90;;;;;;5037375;28;20638;-94
2021/04/20 04:39:58;;;;;;;12.97;8.87;;;5.00;99.90;;;;;;5037081;28;20181;-94
2021/04/20 04:42:24;;;;;;;12.77;8.43;;;5.20;99.90;;;;;;5037370;28;20227;-94
2021/04/20 04:44:54;;;;;;;10.00;8.30;;;5.20;99.90;;;;;;5037068;28;20199;-94
2021/04/20 04:47:20;;;;;;;13.47;9.23;;;5.10;99.90;;;;;;5037123;28;20215;-94
2021/04/20 04:49:46;;;;;;;16.40;9.63;;;5.00;99.90;;;;;;5037393;28;20541;-94
2021/04/20 04:52:14;;;;;;;13.57;9.07;;;5.00;99.90;;;;;;5037153;28;20189;-94
2021/04/20 04:54:45;;;;;;;12.77;9.83;;;5.10;99.90;;;;;;5037042;28;20624;-93
2021/04/20 04:57:12;;;;;;;13.13;9.57;;;5.10;99.90;;;;;;5037696;28;20627;-94
2021/04/20 04:59:40;;;;;;;15.07;9.90;;;5.20;99.90;;;;;;5037404;28;20182;-94
2021/04/20 05:02:08;;;;;;;13.97;9.50;;;5.10;99.90;;;;;;5037079;28;20209;-94
2021/04/20 05:04:40;;;;;;;14.40;9.77;;;5.00;99.90;;;;;;5037053;28;20715;-95
2021/04/20 05:07:05;;;;;;;15.97;9.43;;;5.10;99.90;;;;;;5037043;28;20205;-94
2021/04/20 05:09:31;;;;;;;14.53;9.57;;;5.10;99.90;;;;;;5036823;28;20231;-94
2021/04/20 05:11:57;;;;;;;14.57;9.47;;;5.10;99.90;;;;;;5036976;28;20231;-94
2021/04/20 05:14:25;;;;;;;11.90;8.83;;;5.20;99.90;;;;;;5054564;28;20197;-94
2021/04/20 05:16:55;;;;;;;11.23;8.20;;;5.30;99.90;;;;;;5048197;28;20200;-96
2021/04/20 05:19:31;;;;;;;12.57;8.47;;;5.30;99.90;;;;;;5057298;28;20204;-96
2021/04/20 05:22:06;;;;;;;13.30;9.13;;;5.50;99.90;;;;;;5069937;22;20313;-93
2021/04/20 05:24:32;;;;;;;14.57;9.17;;;5.50;99.90;;;;;;5015843;28;20603;-92
2021/04/20 05:26:58;;;;;;;13.50;9.13;;;5.60;99.90;;;;;;5015684;28;20199;-93
2021/04/20 05:29:24;;;;;;;14.83;9.10;;;5.60;99.90;;;;;;5016015;28;20198;-92
2021/04/20 05:31:51;;;;;;;15.90;10.00;;;5.60;99.90;;;;;;5015916;28;20206;-93
2021/04/20 05:34:21;;;;;;;12.00;8.23;;;5.60;99.90;;;;;;5017791;28;20233;-92
2021/04/20 05:36:47;;;;;;;13.37;8.40;;;5.70;99.90;;;;;;5036936;28;20627;-93
2021/04/20 05:39:15;;;;;;;14.63;8.23;;;5.80;99.90;;;;;;5019413;28;20225;-92
2021/04/20 05:41:41;;;;;;;9.97;7.43;;;5.90;99.90;;;;;;5019290;28;20243;-93
2021/04/20 05:44:09;;;;;;;10.27;7.70;;;6.00;99.90;;;;;;5019304;28;20175;-92
2021/04/20 05:46:36;;;;;;;12.70;6.60;;;6.10;99.90;;;;;;5019274;28;20195;-90
2021/04/20 05:49:03;;;;;;;10.27;6.00;;;6.20;99.90;;;;;;5019027;28;20258;-92
2021/04/20 05:51:29;;;;;;;12.40;6.53;;;6.20;99.90;;;;;;5019126;28;20671;-92
2021/04/20 05:53:55;;;;;;;9.10;6.13;;;6.20;99.90;;;;;;5019612;28;20189;-92
2021/04/20 05:56:23;;;;;;;14.60;7.17;;;6.30;99.90;;;;;;5018857;28;20166;-92
2021/04/20 05:58:57;;;;;;;10.23;6.10;;;6.40;99.90;;;;;;5019195;28;20238;-93
2021/04/20 06:01:25;;;;;;;10.33;6.57;;;6.40;99.90;;;;;;5011556;28;20211;-93
2021/04/20 06:03:51;;;;;;;10.63;6.00;;;6.40;99.90;;;;;;4999273;28;20254;-92
2021/04/20 06:06:22;;;;;;;9.53;6.47;;;6.50;99.90;;;;;;4999250;28;20285;-91
2021/04/20 06:08:51;;;;;;;13.13;6.33;;;6.60;99.90;;;;;;4999437;28;20206;-91
2021/04/20 06:11:18;;;;;;;10.00;6.10;;;6.60;99.90;;;;;;4999214;28;20199;-91
2021/04/20 06:13:46;;;;;;;11.13;5.67;;;6.70;99.90;;;;;;4999476;28;20218;-92
2021/04/20 06:16:12;;;;;;;8.77;5.97;;;6.80;99.90;;;;;;4999411;28;20176;-92
2021/04/20 06:18:39;;;;;;;9.00;5.70;;;6.90;99.90;;;;;;4999308;28;20183;-91
2021/04/20 06:21:06;;;;;;;8.23;5.50;;;7.00;99.90;;;;;;4999144;28;20295;-91
2021/04/20 06:23:33;;;;;;;11.83;6.43;;;7.10;99.90;;;;;;5013123;28;20226;-93
2021/04/20 06:26:02;;;;;;;11.13;5.97;;;7.20;99.90;;;;;;5015097;28;20226;-91
2021/04/20 06:28:29;;;;;;;13.10;6.83;;;7.20;99.90;;;;;;5017671;28;20274;-94
2021/04/20 06:31:02;;;;;;;11.23;5.83;;;7.30;99.90;;;;;;5014534;28;20168;-92
2021/04/20 06:33:32;;;;;;;13.67;6.30;;;7.40;99.90;;;;;;5015089;28;20167;-93
2021/04/20 06:36:01;;;;;;;11.70;6.40;;;7.50;99.90;;;;;;5015057;28;20194;-92
2021/04/20 06:38:29;;;;;;;12.40;6.43;;;7.50;99.90;;;;;;5015540;28;20179;-94
2021/04/20 06:40:56;;;;;;;12.47;6.40;;;7.60;99.90;;;;;;5014610;28;20269;-91
2021/04/20 06:43:45;;;;;;;13.47;6.57;;;7.70;99.90;;;;;;5013985;28;20172;-92
2021/04/20 06:46:15;;;;;;;12.93;5.77;;;7.70;99.90;;;;;;5014436;28;20242;-92
2021/04/20 06:48:59;;;;;;;13.43;6.33;;;7.90;99.90;;;;;;5014546;28;20182;-93
2021/04/20 06:51:38;;;;;;;13.43;6.10;;;7.90;99.90;;;;;;5014462;28;20249;-93
2021/04/20 06:54:25;;;;;;;12.83;6.87;;;8.00;99.90;;;;;;5014602;28;20168;-94
2021/04/20 06:57:01;;;;;;;12.83;6.77;;;8.10;99.90;;;;;;5014622;28;20176;-92
2021/04/20 06:59:43;;;;;;;12.37;6.27;;;8.20;99.90;;;;;;5014421;28;20237;-94
2021/04/20 07:02:39;;;;;;;14.47;7.27;;;8.30;99.90;;;;;;5014068;28;20242;-92
2021/04/20 07:05:10;;;;;;;12.97;6.67;;;8.40;99.90;;;;;;5014686;28;20254;-92
2021/04/20 07:08:02;;;;;;;14.03;6.70;;;8.50;99.90;;;;;;5014399;28;20175;-95
2021/04/20 07:10:35;;;;;;;12.57;6.93;;;8.50;99.90;;;;;;5014487;28;20535;-93
2021/04/20 07:13:06;;;;;;;12.87;6.40;;;8.60;99.90;;;;;;5032956;28;20213;-91
2021/04/20 07:15:35;;;;;;;13.63;7.30;;;8.70;99.90;;;;;;5033788;28;20190;-93
2021/04/20 07:18:22;;;;;;;12.40;7.20;;;8.80;99.90;;;;;;5033194;28;20186;-91
2021/04/20 07:21:20;;;;;;;15.97;7.47;;;8.90;99.90;;;;;;5033765;28;20235;-91
2021/04/20 07:24:14;;;;;;;17.73;7.60;;;9.00;99.90;;;;;;5033584;28;20333;-91
2021/04/20 07:27:05;;;;;;;13.53;7.20;;;9.10;99.90;;;;;;5033937;28;20228;-92
2021/04/20 07:29:54;;;;;;;15.97;8.47;;;9.20;99.90;;;;;;5033810;28;20194;-92
2021/04/20 07:32:33;;;;;;;19.03;8.90;;;9.30;99.90;;;;;;4993825;28;20206;-92
2021/04/20 07:35:09;;;;;;;19.13;9.27;;;9.50;99.90;;;;;;5016930;28;20191;-93
2021/04/20 07:37:45;;;;;;;17.33;10.07;;;9.60;99.90;;;;;;5013744;28;20179;-95
2021/04/20 07:40:26;;;;;;;17.50;11.20;;;9.60;99.90;;;;;;5014127;28;20201;-94
2021/04/20 07:43:19;;;;;;;17.50;10.00;;;9.70;99.90;;;;;;5013838;28;20199;-91
2021/04/20 07:46:13;;;;;;;19.90;9.83;;;9.90;99.90;;;;;;5013810;28;20191;-95
2021/04/20 07:48:42;;;;;;;14.50;9.07;;;9.90;99.90;;;;;;5030110;28;20172;-92
2021/04/20 07:51:26;;;;;;;15.70;9.10;;;10.10;99.90;;;;;;5033268;28;20199;-92
2021/04/20 07:54:14;;;;;;;14.43;8.70;;;10.20;99.90;;;;;;5031432;28;20246;-94
2021/04/20 07:56:48;;;;;;;12.17;8.07;;;10.30;99.90;;;;;;5017771;28;20175;-92
2021/04/20 07:59:38;;;;;;;18.87;8.10;;;10.40;99.90;;;;;;5014585;28;20191;-93
2021/04/20 08:02:19;;;;;;;18.60;7.77;;;10.40;99.90;;;;;;5014503;28;20199;-93
2021/04/20 08:04:50;;;;;;;13.00;8.27;;;10.40;99.90;;;;;;5013282;28;20627;-94
2021/04/20 08:07:29;;;;;;;15.63;8.13;;;10.50;99.90;;;;;;5023931;28;20202;-93
2021/04/20 08:09:56;;;;;;;14.93;7.83;;;10.50;99.90;;;;;;5031783;28;20536;-94
2021/04/20 08:12:27;;;;;;;15.97;7.70;;;10.70;99.90;;;;;;5033150;28;20199;-93
2021/04/20 08:15:11;;;;;;;13.50;7.83;;;10.80;99.90;;;;;;5033414;28;20177;-95
2021/04/20 08:18:02;;;;;;;14.87;7.50;;;11.00;99.90;;;;;;5033062;28;20266;-93
2021/04/20 08:20:29;;;;;;;16.37;8.17;;;11.20;99.90;;;;;;5034104;28;20163;-91
2021/04/20 08:22:58;;;;;;;12.13;7.50;;;11.30;99.90;;;;;;5032009;28;20705;-93
2021/04/20 08:25:50;;;;;;;13.53;7.63;;;11.30;99.90;;;;;;5032763;28;20626;-93
2021/04/20 08:28:35;;;;;;;13.10;7.13;;;11.40;99.90;;;;;;5021741;28;20658;-93
2021/04/20 08:31:09;;;;;;;15.67;7.73;;;11.40;99.90;;;;;;5029494;28;20179;-94
2021/04/20 08:33:39;;;;;;;11.53;7.70;;;11.40;99.90;;;;;;5013287;28;20182;-94
2021/04/20 08:36:31;;;;;;;11.90;7.90;;;11.40;99.90;;;;;;5013069;28;20611;-95
2021/04/20 08:39:25;;;;;;;14.50;8.50;;;11.50;99.90;;;;;;5013476;28;20190;-92
2021/04/20 08:41:55;;;;;;;14.40;8.20;;;11.60;99.90;;;;;;5013042;28;20214;-93
2021/04/20 08:45:07;;;;;;;15.07;8.53;;;11.70;99.90;;;;;;5029476;28;20596;-94
2021/04/20 08:47:41;;;;;;;15.37;8.73;;;11.80;99.90;;;;;;4989933;28;20202;-92
2021/04/20 08:50:11;;;;;;;16.50;8.97;;;11.80;99.90;;;;;;5013366;28;20591;-94
2021/04/20 08:52:57;;;;;;;12.18;8.02;;;11.90;99.90;;;;;;5013091;28;20285;-95
2021/04/20 08:55:35;;;;;;;16.63;8.20;;;12.00;99.90;;;;;;5013136;28;20190;-93
2021/04/20 08:58:36;;;;;;;14.33;8.37;;;12.10;99.90;;;;;;5022705;28;20252;-90
2021/04/20 09:01:21;;;;;;;13.40;7.33;;;12.30;99.90;;;;;;5032565;28;20197;-94
2021/04/20 09:04:17;;;;;;;13.25;7.38;;;12.60;99.90;;;;;;5032531;28;20631;-92
2021/04/20 09:06:55;;;;;;;12.23;6.93;;;12.70;99.90;;;;;;5032552;28;20200;-93
2021/04/20 09:09:24;;;;;;;18.33;7.18;;;12.80;99.90;;;;;;5036562;28;20255;-92
2021/04/20 09:12:05;;;;;;;15.50;7.20;;;12.90;99.90;;;;;;5036386;28;20198;-95
2021/04/20 09:14:39;;;;;;;12.63;6.97;;;12.90;99.90;;;;;;5036513;28;20171;-92
2021/04/20 09:17:21;;;;;;;9.32;6.05;;;13.00;99.90;;;;;;5036576;28;20166;-90
2021/04/20 09:20:06;;;;;;;13.43;6.38;;;13.10;99.90;;;;;;5028287;28;20241;-93
2021/04/20 09:22:38;;;;;;;11.63;6.05;;;13.10;99.90;;;;;;5015939;28;20624;-94
2021/04/20 09:25:04;;;;;;;15.02;6.47;;;13.20;99.90;;;;;;5016520;28;20217;-94
2021/04/20 09:27:44;;;;;;;15.18;6.47;;;13.30;99.90;;;;;;5016341;28;20221;-89
2021/04/20 09:30:17;;;;;;;11.93;6.43;;;13.30;99.60;;;;;;5016282;28;20643;-93
2021/04/20 09:32:49;;;;;;;11.20;5.90;;;13.40;99.40;;;;;;5026675;28;20202;-94
2021/04/20 09:35:16;;;;;;;11.07;6.20;;;13.30;99.60;;;;;;5036821;28;20732;-95
2021/04/20 09:37:43;;;;;;;10.95;6.10;;;13.50;98.80;;;;;;5031311;28;20170;-92
2021/04/20 09:40:15;;;;;;;13.65;6.18;;;13.60;98.50;;;;;;5036325;28;20683;-92
2021/04/20 09:42:52;;;;;;;12.25;6.20;;;13.60;99.70;;;;;;5035887;28;20277;-93
2021/04/20 09:45:26;;;;;;;14.75;6.40;;;13.80;98.80;;;;;;5036015;28;20171;-95
2021/04/20 09:47:55;;;;;;;13.23;6.22;;;13.70;98.30;;;;;;5035268;28;20174;-95
2021/04/20 09:50:30;;;;;;;12.80;6.15;;;13.80;97.40;;;;;;5035133;28;20186;-93
2021/04/20 09:53:21;;;;;;;11.48;5.90;;;13.90;97.80;;;;;;5029870;28;20201;-92
2021/04/20 09:56:10;;;;;;;11.75;6.13;;;14.00;98.10;;;;;;5024791;28;20187;-93
2021/04/20 09:58:48;;;;;;;13.40;5.75;;;14.00;95.60;;;;;;5035838;28;20262;-91
2021/04/20 10:01:59;;;;;;;10.02;5.68;;;14.00;97.90;;;;;;5035646;28;20209;-91
2021/04/20 10:04:39;;;;;;;15.55;5.75;;;14.20;97.70;;;;;;5035799;28;20166;-91
2021/04/20 10:07:43;;;;;;;9.27;5.55;;;14.30;95.70;;;;;;5035707;28;20202;-94
2021/04/20 10:10:28;;;;;;;14.02;6.07;;;14.50;96.10;;;;;;5035297;28;20173;-94
2021/04/20 10:13:31;;;;;;;13.30;5.82;;;14.50;94.90;;;;;;5035292;28;20198;-91
2021/04/20 10:16:15;;;;;;;13.32;5.25;;;14.60;95.30;;;;;;5035989;28;20170;-94
2021/04/20 10:18:53;;;;;;;13.50;5.55;;;14.60;95.40;;;;;;5036304;28;20650;-91
2021/04/20 10:21:57;;;;;;;11.57;5.50;;;14.80;94.50;;;;;;5037769;28;20289;-93
2021/04/20 10:24:25;;;;;;;11.70;5.80;;;14.90;95.30;;;;;;5019318;28;20178;-94
2021/04/20 10:27:35;;;;;;;11.02;6.00;;;14.90;94.70;;;;;;5019380;28;20202;-94
2021/04/20 10:30:25;;;;;;;11.13;5.43;;;15.00;95.90;;;;;;4960043;28;20169;-94
2021/04/20 10:33:41;;;;;;;8.45;5.53;;;15.10;93.60;;;;;;5019760;28;20737;-93
2021/04/20 10:39:49;;;;;;;10.85;5.70;;;15.20;94.00;;;;;;5033054;28;20546;-94
2021/04/20 10:42:44;;;;;;;13.55;6.25;;;15.30;93.30;;;;;;5019040;28;20218;-94
2021/04/20 10:45:14;;;;;;;11.07;6.35;;;15.40;89.50;;;;;;5014991;28;20187;-92
2021/04/20 10:47:56;;;;;;;13.60;5.72;;;15.40;92.20;;;;;;5015551;28;20298;-94
2021/04/20 10:50:33;;;;;;;14.40;6.25;;;15.40;92.90;;;;;;5015325;28;20159;-94
2021/04/20 10:56:31;;;;;;;8.95;5.88;;;15.70;92.20;;;;;;5016071;28;20166;-92
2021/04/20 10:59:36;;;;;;;14.25;5.90;;;15.70;90.50;;;;;;5015042;28;20240;-92
2021/04/20 11:02:27;;;;;;;15.52;6.07;;;15.80;90.30;;;;;;5015458;28;20218;-93
2021/04/20 11:04:55;;;;;;;14.07;5.60;;;15.80;91.90;;;;;;5014870;28;20214;-94
2021/04/20 11:07:34;;;;;;;17.25;5.65;;;15.90;90.70;;;;;;5014729;28;20192;-94
2021/04/20 11:10:15;;;;;;;11.02;5.43;;;16.10;90.40;;;;;;5015000;28;20177;-94
2021/04/20 11:12:47;;;;;;;11.32;5.13;;;16.10;88.20;;;;;;4998589;28;20302;-93
2021/04/20 11:15:29;;;;;;;9.15;5.20;;;16.20;86.70;;;;;;4999310;28;20681;-93
2021/04/20 11:17:54;;;;;;;12.38;5.55;;;16.20;87.10;;;;;;5000767;28;20254;-94
2021/04/20 11:21:01;;;;;;;9.57;4.70;;;16.30;83.20;;;;;;5035180;28;20258;-95
2021/04/20 11:23:39;;;;;;;11.65;5.22;;;16.40;85.30;;;;;;4978795;28;20222;-92
2021/04/20 11:26:12;;;;;;;10.23;5.35;;;16.60;82.30;;;;;;5029270;28;20236;-92
2021/04/20 11:28:59;;;;;;;9.57;5.20;;;16.60;83.70;;;;;;5025032;28;20226;-94
2021/04/20 11:32:01;;;;;;;9.05;5.45;;;16.80;82.40;;;;;;5019123;28;20195;-96
2021/04/20 11:34:33;;;;;;;6.72;4.65;;;16.80;83.40;;;;;;5026699;28;20641;-93
2021/04/20 11:37:07;;;;;;;13.32;5.68;;;16.90;80.50;;;;;;5025763;28;20222;-92
2021/04/20 11:43:02;;;;;;;8.93;5.28;;;16.90;80.20;;;;;;5015767;28;20242;-96
2021/04/20 11:45:30;;;;;;;7.82;4.60;;;17.00;82.00;;;;;;5031198;28;20221;-91
2021/04/20 11:48:05;;;;;;;8.60;5.05;;;17.00;79.70;;;;;;5020774;28;20632;-94
2021/04/20 11:51:01;;;;;;;11.98;5.18;;;17.10;78.20;;;;;;5015739;28;20197;-94
2021/04/20 11:53:36;;;;;;;12.45;5.10;;;17.20;78.00;;;;;;5014481;28;20171;-93
2021/04/20 11:56:03;;;;;;;10.13;5.35;;;17.20;78.10;;;;;;5013696;28;20262;-93
2021/04/20 11:58:32;;;;;;;10.40;4.72;;;17.30;76.60;;;;;;5014308;28;20686;-91
2021/04/20 12:01:10;;;;;;;11.75;4.63;;;17.30;75.60;;;;;;5014441;28;20179;-94
2021/04/20 12:03:42;;;;;;;13.52;5.78;;;17.30;72.90;;;;;;5013776;28;20175;-92
2021/04/20 12:06:08;;;;;;;11.60;5.30;;;17.30;72.90;;;;;;5013364;28;20215;-94
2021/04/20 12:08:38;;;;;;;15.43;5.30;;;17.20;74.60;;;;;;5013816;28;20539;-94
2021/04/20 12:11:10;;;;;;;7.60;5.13;;;17.20;75.40;;;;;;5013523;28;20257;-93
2021/04/20 12:13:44;;;;;;;9.57;5.10;;;17.30;75.60;;;;;;5013690;28;20221;-94
2021/04/20 12:16:11;;;;;;;9.65;4.88;;;17.40;77.80;;;;;;5023549;28;20191;-93
2021/04/20 12:18:42;;;;;;;15.80;5.03;;;17.50;78.40;;;;;;5029387;28;20182;-92
2021/04/20 12:21:12;;;;;;;11.77;5.40;;;17.70;75.70;;;;;;5015195;28;20171;-93
2021/04/20 12:23:46;;;;;;;10.80;4.88;;;17.60;72.10;;;;;;5015042;28;20593;-93
2021/04/20 12:26:15;;;;;;;10.80;5.00;;;17.70;72.70;;;;;;5014676;28;20195;-96
2021/04/20 12:28:53;;;;;;;8.32;5.20;;;17.90;72.90;;;;;;5013797;28;20163;-92
2021/04/20 12:31:27;;;;;;;10.20;4.75;;;18.00;71.40;;;;;;5014186;28;20199;-95
2021/04/20 12:33:54;;;;;;;13.32;5.18;;;17.90;70.60;;;;;;5021486;28;20224;-95
2021/04/20 12:36:43;;;;;;;11.20;4.85;;;17.70;68.90;;;;;;5033476;28;20599;-94
2021/04/20 12:39:22;;;;;;;15.25;5.20;;;17.70;73.20;;;;;;5033955;28;20163;-93
2021/04/20 12:41:51;;;;;;;13.10;5.80;;;17.70;70.20;;;;;;5035041;28;20352;-92
2021/04/20 12:44:21;;;;;;;8.82;4.70;;;17.70;73.10;;;;;;5039885;28;20166;-92
2021/04/20 12:46:53;;;;;;;8.77;4.85;;;17.80;70.70;;;;;;5041553;28;20194;-94
2021/04/20 12:49:22;;;;;;;9.95;4.72;;;17.80;70.60;;;;;;5039726;28;20163;-95
2021/04/20 12:51:53;;;;;;;8.65;4.70;;;17.90;75.00;;;;;;5031504;28;20710;-93
2021/04/20 12:54:28;;;;;;;9.88;4.97;;;18.00;75.80;;;;;;5030456;28;20614;-95
2021/04/20 13:00:28;;;;;;;11.80;5.03;;;18.10;75.70;;;;;;5022348;28;20166;-93
2021/04/20 13:02:56;;;;;;;9.48;5.13;;;18.00;75.70;;;;;;5020281;28;20223;-93
2021/04/20 13:05:39;;;;;;;12.85;5.40;;;18.20;75.20;;;;;;5027661;28;20177;-95
2021/04/20 13:11:52;;;;;;;9.50;4.78;;;18.30;73.10;;;;;;5051782;28;20255;-93
2021/04/20 13:14:23;;;;;;;13.55;5.18;;;18.20;69.70;;;;;;5060572;28;20173;-93
2021/04/20 13:16:55;;;;;;;14.77;5.35;;;18.20;72.70;;;;;;5060227;28;20169;-93
2021/04/20 13:19:56;;;;;;;7.40;5.03;;;18.20;70.30;;;;;;5060528;28;20205;-93
2021/04/20 13:22:29;;;;;;;7.55;4.47;;;18.00;70.50;;;;;;5059232;28;20260;-94
2021/04/20 13:25:03;;;;;;;11.02;5.18;;;18.10;71.10;;;;;;5005073;28;20278;-94
2021/04/20 13:27:32;;;;;;;8.55;4.68;;;18.20;74.70;;;;;;5023510;28;20198;-93
2021/04/20 13:30:19;;;;;;;12.88;4.93;;;18.30;71.80;;;;;;5019838;28;20248;-93
2021/04/20 13:33:02;;;;;;;12.15;4.82;;;18.40;73.90;;;;;;5022637;28;20201;-92
2021/04/20 13:35:34;;;;;;;10.80;4.75;;;18.40;71.50;;;;;;5014263;28;20185;-92
2021/04/20 13:38:01;;;;;;;8.07;5.03;;;18.40;70.50;;;;;;5022737;28;20308;-94
2021/04/20 13:40:34;;;;;;;14.93;5.28;;;18.40;71.40;;;;;;5022974;28;20585;-94